Time;durP1;ratioP1;P1;durP2;ratioP2;P2;SDS_P1;SDS_P2;PMS_P1;PMS_P2;Temp;Humidity;BMP_temperature;BMP_pressure;BME280_temperature;BME280_humidity;BME280_pressure;Samples;Min_cycle;Max_cycle;Signal;HPM_P1;HPM_P2
2022/05/24 00:01:27;;;;;;;7.50;5.70;;;;;;;11.63;63.60;97210.23;106116;1279;22560;-85
2022/05/24 00:03:56;;;;;;;10.20;6.20;;;;;;;11.64;63.56;97213.41;106145;1278;22557;-85
2022/05/24 00:06:30;;;;;;;7.80;5.60;;;;;;;11.64;63.61;97214.20;106210;1278;22691;-84
2022/05/24 00:08:58;;;;;;;7.20;5.40;;;;;;;11.64;63.36;97212.86;106183;1277;22624;-84
2022/05/24 00:11:33;;;;;;;7.50;6.60;;;;;;;11.64;63.39;97208.33;106218;1278;22556;-85
2022/05/24 00:14:01;;;;;;;7.50;5.90;;;;;;;11.63;63.12;97214.55;105998;1278;23357;-85
2022/05/24 00:16:29;;;;;;;8.40;6.20;;;;;;;11.63;63.28;97213.09;106006;1278;25303;-86
2022/05/24 00:18:57;;;;;;;8.10;6.10;;;;;;;11.63;63.11;97211.38;105937;1279;22559;-84
2022/05/24 00:21:26;;;;;;;7.00;5.40;;;;;;;11.60;63.63;97206.65;105863;1278;22797;-84
2022/05/24 00:23:54;;;;;;;8.60;5.80;;;;;;;11.58;63.58;97204.86;105916;1278;26653;-86
2022/05/24 00:26:29;;;;;;;7.90;5.00;;;;;;;11.56;63.64;97201.00;106112;1278;24425;-87
2022/05/24 00:28:57;;;;;;;7.20;5.20;;;;;;;11.56;63.55;97206.80;106142;1277;25219;-85
2022/05/24 00:31:25;;;;;;;6.30;5.10;;;;;;;11.59;63.82;97204.89;106085;1277;25614;-85
2022/05/24 00:33:53;;;;;;;8.10;5.40;;;;;;;11.60;63.60;97206.09;106145;1278;22703;-84
2022/05/24 00:36:22;;;;;;;7.20;5.70;;;;;;;11.61;63.55;97202.34;106172;1277;22629;-84
2022/05/24 00:38:50;;;;;;;7.00;5.90;;;;;;;11.58;63.90;97202.95;106359;1278;22647;-82
2022/05/24 00:41:27;;;;;;;6.30;5.60;;;;;;;11.55;64.16;97197.67;106349;1277;22611;-86
2022/05/24 00:44:00;;;;;;;6.30;5.60;;;;;;;11.50;64.03;97189.42;106282;1278;22544;-84
2022/05/24 00:46:40;;;;;;;5.50;4.90;;;;;;;11.49;63.97;97186.89;106402;1279;22573;-85
2022/05/24 00:49:30;;;;;;;6.00;5.20;;;;;;;11.48;63.70;97186.88;106254;1278;23975;-85
2022/05/24 00:52:12;;;;;;;9.80;5.00;;;;;;;11.49;64.02;97178.27;106068;1278;22631;-88
2022/05/24 00:54:42;;;;;;;8.10;4.80;;;;;;;11.51;64.11;97176.21;105986;1278;22604;-85
2022/05/24 00:57:29;;;;;;;5.60;4.60;;;;;;;11.53;64.29;97176.67;106086;1278;25404;-86
2022/05/24 01:00:06;;;;;;;6.00;5.10;;;;;;;11.55;64.04;97176.52;105996;1275;22641;-86
2022/05/24 01:02:38;;;;;;;7.40;5.20;;;;;;;11.55;63.83;97176.08;106003;1278;22555;-88
2022/05/24 01:05:09;;;;;;;6.20;4.60;;;;;;;11.56;63.99;97173.96;106027;1277;22847;-86
2022/05/24 01:07:38;;;;;;;6.20;5.00;;;;;;;11.56;63.96;97171.04;106204;1278;24429;-85
2022/05/24 01:10:08;;;;;;;8.80;5.80;;;;;;;11.58;63.86;97169.02;105969;1277;23232;-86
2022/05/24 01:12:41;;;;;;;6.00;5.40;;;;;;;11.58;63.62;97168.77;106009;1278;25411;-85
2022/05/24 01:15:12;;;;;;;6.30;5.10;;;;;;;11.55;63.61;97166.20;106143;1277;24233;-87
2022/05/24 01:17:40;;;;;;;6.20;5.60;;;;;;;11.56;63.62;97166.23;106120;1277;22544;-87
2022/05/24 01:20:09;;;;;;;7.00;5.00;;;;;;;11.52;63.80;97163.61;106193;1278;22825;-87
2022/05/24 01:22:42;;;;;;;6.00;5.10;;;;;;;11.50;64.08;97165.46;106154;1278;22873;-87
2022/05/24 01:25:34;;;;;;;5.60;4.80;;;;;;;11.51;64.13;97164.48;105972;1278;22768;-87
2022/05/24 01:28:09;;;;;;;8.30;4.60;;;;;;;11.51;64.32;97161.94;106033;1277;24430;-86
2022/05/24 01:30:37;;;;;;;6.10;5.50;;;;;;;11.50;64.41;97158.79;106403;1278;22664;-87
2022/05/24 01:36:09;;;;;;;6.80;5.50;;;;;;;11.50;64.38;97156.56;106195;1277;22724;-86
2022/05/24 01:38:52;;;;;;;5.80;5.10;;;;;;;11.48;64.45;97154.33;106426;1277;25415;-86
2022/05/24 01:41:33;;;;;;;7.90;5.10;;;;;;;11.45;64.48;97149.29;106034;1278;24238;-88
2022/05/24 01:44:03;;;;;;;6.50;5.50;;;;;;;11.42;64.49;97148.52;106007;1278;25303;-87
2022/05/24 01:46:38;;;;;;;5.90;5.30;;;;;;;11.40;65.01;97141.89;106076;1277;25502;-88
2022/05/24 01:49:12;;;;;;;5.80;5.20;;;;;;;11.39;64.94;97140.65;106091;1278;24439;-87
2022/05/24 01:51:47;;;;;;;7.50;5.70;;;;;;;11.39;65.06;97133.48;106094;1277;22612;-86
2022/05/24 01:54:15;;;;;;;6.00;5.40;;;;;;;11.37;65.20;97132.45;106357;1277;22949;-86
2022/05/24 01:57:06;;;;;;;7.10;5.30;;;;;;;11.35;65.09;97132.23;108871;1277;24192;-85
2022/05/24 01:59:39;;;;;;;7.20;5.50;;;;;;;11.34;65.06;97127.55;108417;1277;24247;-85
2022/05/24 02:02:07;;;;;;;6.00;5.20;;;;;;;11.33;65.05;97122.98;105989;1277;24398;-87
2022/05/24 02:04:35;;;;;;;6.30;5.70;;;;;;;11.31;65.36;97123.38;105971;1278;22871;-86
2022/05/24 02:07:10;;;;;;;6.70;5.60;;;;;;;11.29;65.18;97117.34;105966;1278;25333;-88
2022/05/24 02:09:41;;;;;;;10.30;5.30;;;;;;;11.30;65.53;97115.09;106716;1277;24220;-87
2022/05/24 02:12:25;;;;;;;6.20;5.40;;;;;;;11.29;65.43;97115.13;106375;1277;23127;-85
2022/05/24 02:15:08;;;;;;;6.60;5.10;;;;;;;11.30;65.12;97118.40;106185;1278;22572;-89
2022/05/24 02:17:46;;;;;;;7.70;5.40;;;;;;;11.31;64.96;97115.19;107265;1277;22560;-88
2022/05/24 02:20:24;;;;;;;7.00;5.20;;;;;;;11.31;65.11;97115.98;106193;1277;24234;-89
2022/05/24 02:27:13;;;;;;;7.20;5.20;;;;;;;11.26;65.27;97110.27;106064;1278;25563;-90
2022/05/24 02:30:08;;;;;;;6.30;4.70;;;;;;;11.27;65.34;97106.31;106057;1277;22633;-88
2022/05/24 02:32:35;;;;;;;7.60;5.30;;;;;;;11.28;65.91;97105.35;108110;1277;22551;-88
2022/05/24 02:35:04;;;;;;;8.60;5.60;;;;;;;11.25;65.92;97100.45;108773;1277;22651;-87
2022/05/24 02:37:32;;;;;;;6.20;5.30;;;;;;;11.24;66.35;97102.71;107328;1277;22880;-89
2022/05/24 02:42:46;;;;;;;6.60;5.70;;;;;;;11.20;66.67;97104.08;105755;1278;24393;-87
2022/05/24 02:45:14;;;;;;;6.80;5.30;;;;;;;11.19;66.85;97100.50;105996;1277;22537;-87
2022/05/24 02:47:42;;;;;;;6.50;5.40;;;;;;;11.20;66.78;97098.14;106065;1277;25427;-88
2022/05/24 02:50:11;;;;;;;8.50;5.10;;;;;;;11.19;66.67;97095.97;106149;1277;24226;-87
2022/05/24 02:52:40;;;;;;;7.30;6.20;;;;;;;11.18;66.84;97101.84;106338;1277;22877;-87
2022/05/24 02:55:10;;;;;;;6.00;5.40;;;;;;;11.15;66.70;97099.17;106697;1277;22549;-88
2022/05/24 02:57:40;;;;;;;6.50;5.80;;;;;;;11.11;66.58;97097.41;106740;1277;25369;-88
2022/05/24 03:00:13;;;;;;;6.50;5.70;;;;;;;11.09;66.91;97102.02;106589;1276;22748;-86
2022/05/24 03:02:41;;;;;;;8.20;5.80;;;;;;;11.09;66.80;97097.02;107302;1277;22889;-87
2022/05/24 03:05:12;;;;;;;7.60;6.10;;;;;;;11.13;66.56;97098.73;106107;1277;24070;-87
2022/05/24 03:10:29;;;;;;;6.90;6.20;;;;;;;11.19;67.10;97094.73;106333;1278;22575;-89
2022/05/24 03:15:46;;;;;;;6.90;6.20;;;;;;;11.16;67.36;97096.14;105987;1278;22647;-88
2022/05/24 03:18:17;;;;;;;7.40;5.80;;;;;;;11.14;67.46;97096.36;105998;1277;24271;-87
2022/05/24 03:20:45;;;;;;;6.30;5.70;;;;;;;11.16;67.28;97091.82;106033;1277;22560;-87
2022/05/24 03:23:14;;;;;;;7.30;6.10;;;;;;;11.17;67.49;97086.64;106055;1277;22627;-89
2022/05/24 03:25:42;;;;;;;7.50;6.70;;;;;;;11.19;67.63;97090.19;106023;1277;22699;-87
2022/05/24 03:28:10;;;;;;;8.20;6.10;;;;;;;11.19;67.54;97089.34;105970;1277;22578;-88
2022/05/24 03:30:43;;;;;;;7.40;6.60;;;;;;;11.18;67.68;97092.08;106633;1277;22578;-85
2022/05/24 03:33:13;;;;;;;8.80;6.80;;;;;;;11.15;67.95;97093.02;108780;1277;22544;-87
2022/05/24 03:35:41;;;;;;;9.60;7.00;;;;;;;11.12;67.94;97098.94;108275;1277;22546;-87
2022/05/24 03:38:09;;;;;;;9.10;5.80;;;;;;;11.15;67.93;97101.11;106001;1277;22579;-86
2022/05/24 03:40:37;;;;;;;7.10;6.30;;;;;;;11.18;68.08;97097.94;105952;1277;22721;-86
2022/05/24 03:43:11;;;;;;;7.20;6.50;;;;;;;11.19;67.78;97100.59;106139;1277;25346;-86
2022/05/24 03:45:40;;;;;;;7.50;6.50;;;;;;;11.20;67.93;97097.45;105979;1277;24188;-85
2022/05/24 03:48:16;;;;;;;7.30;6.40;;;;;;;11.20;67.91;97099.23;106012;1277;22735;-86
2022/05/24 03:50:44;;;;;;;7.50;6.80;;;;;;;11.18;68.16;97097.93;106063;1277;22566;-86
2022/05/24 03:53:12;;;;;;;8.00;6.50;;;;;;;11.17;68.25;97098.48;106042;1277;25513;-86
2022/05/24 03:55:40;;;;;;;6.90;6.20;;;;;;;11.17;68.54;97100.13;106016;1277;22706;-86
2022/05/24 03:58:08;;;;;;;8.40;6.50;;;;;;;11.19;68.37;97095.80;106001;1277;22561;-86
2022/05/24 04:00:38;;;;;;;7.70;6.70;;;;;;;11.20;68.67;97098.79;105985;1277;24236;-87
2022/05/24 04:03:08;;;;;;;7.80;7.00;;;;;;;11.20;68.46;97098.37;105973;1277;23033;-86
2022/05/24 04:05:47;;;;;;;9.60;6.70;;;;;;;11.19;68.36;97102.75;106142;1277;25393;-86
2022/05/24 04:08:17;;;;;;;8.90;7.20;;;;;;;11.19;68.28;97109.13;105977;1277;22604;-86
2022/05/24 04:10:45;;;;;;;8.10;7.00;;;;;;;11.19;68.15;97114.39;105973;1277;25303;-85
2022/05/24 04:13:13;;;;;;;7.00;5.80;;;;;;;11.23;68.34;97120.00;106062;1277;24299;-87
2022/05/24 04:15:41;;;;;;;7.30;5.80;;;;;;;11.27;68.59;97121.10;106274;1278;25289;-88
2022/05/24 04:18:09;;;;;;;7.60;6.40;;;;;;;11.29;68.66;97125.88;106041;1277;22729;-85
2022/05/24 04:20:37;;;;;;;8.10;6.90;;;;;;;11.27;68.56;97126.21;105975;1277;23827;-87
2022/05/24 04:23:12;;;;;;;7.60;6.90;;;;;;;11.26;68.35;97125.66;106037;1278;22708;-87
2022/05/24 04:25:41;;;;;;;7.40;6.40;;;;;;;11.25;68.38;97119.86;106116;1278;22573;-84
2022/05/24 04:28:09;;;;;;;8.40;6.40;;;;;;;11.24;68.58;97119.08;106007;1277;22560;-85
2022/05/24 04:30:37;;;;;;;9.50;6.60;;;;;;;11.25;68.63;97123.02;106057;1278;25540;-85
2022/05/24 04:33:05;;;;;;;7.00;6.30;;;;;;;11.27;68.58;97127.82;105944;1277;22550;-84
2022/05/24 04:35:33;;;;;;;8.50;7.70;;;;;;;11.28;68.78;97130.08;106080;1277;26739;-84
2022/05/24 04:38:01;;;;;;;7.50;6.80;;;;;;;11.28;68.94;97126.84;105991;1277;25381;-87
2022/05/24 04:43:15;;;;;;;17.20;12.80;;;;;;;11.26;68.92;97136.33;106073;1277;23541;-86
2022/05/24 04:45:43;;;;;;;9.10;7.70;;;;;;;11.26;68.92;97136.45;106124;1277;24522;-85
2022/05/24 04:48:11;;;;;;;11.80;6.50;;;;;;;11.27;68.87;97137.69;106123;1277;22487;-86
2022/05/24 04:50:40;;;;;;;7.90;6.40;;;;;;;11.30;68.92;97136.95;106138;1277;22601;-85
2022/05/24 04:53:08;;;;;;;9.50;7.10;;;;;;;11.32;68.99;97137.58;106567;1277;24344;-87
2022/05/24 04:55:36;;;;;;;7.40;6.40;;;;;;;11.36;68.95;97133.50;106141;1277;22765;-87
2022/05/24 04:58:04;;;;;;;10.00;6.70;;;;;;;11.39;68.95;97128.93;107322;1277;23341;-85
2022/05/24 05:00:31;;;;;;;9.30;7.20;;;;;;;11.43;69.11;97127.14;108981;1277;22670;-85
2022/05/24 05:03:07;;;;;;;7.70;6.80;;;;;;;11.45;69.38;97128.40;108456;1277;22615;-85
2022/05/24 05:05:35;;;;;;;7.60;6.10;;;;;;;11.50;69.64;97135.15;105970;1277;22628;-85
2022/05/24 05:08:04;;;;;;;9.50;6.70;;;;;;;11.54;69.53;97133.55;106021;1277;25324;-86
2022/05/24 05:10:36;;;;;;;8.30;7.40;;;;;;;11.57;69.56;97133.53;106174;1277;24227;-86
2022/05/24 05:13:06;;;;;;;8.50;6.40;;;;;;;11.60;69.58;97130.02;106206;1277;25231;-87
2022/05/24 05:15:37;;;;;;;7.90;6.20;;;;;;;11.63;69.65;97129.66;106157;1277;22692;-85
2022/05/24 05:18:08;;;;;;;7.10;6.20;;;;;;;11.69;69.67;97129.36;106095;1277;24435;-83
2022/05/24 05:20:41;;;;;;;7.40;6.40;;;;;;;11.77;69.80;97131.22;106073;1278;22563;-87
2022/05/24 05:23:12;;;;;;;8.10;6.40;;;;;;;11.85;69.55;97127.16;106075;1277;24768;-88
2022/05/24 05:25:42;;;;;;;7.10;6.30;;;;;;;11.92;69.49;97129.63;106838;1277;22486;-85
2022/05/24 05:28:10;;;;;;;6.60;5.90;;;;;;;11.96;69.45;97126.55;108114;1277;23096;-85
2022/05/24 05:33:26;;;;;;;9.10;6.10;;;;;;;12.11;69.30;97136.60;108146;1277;22681;-85
2022/05/24 05:35:54;;;;;;;8.60;6.50;;;;;;;12.18;69.05;97137.95;106691;1277;22555;-87
2022/05/24 05:38:22;;;;;;;10.60;5.60;;;;;;;12.26;69.03;97140.66;106871;1277;24334;-87
2022/05/24 05:40:52;;;;;;;7.00;6.30;;;;;;;12.35;68.90;97148.61;106914;1277;25357;-85
2022/05/24 05:43:21;;;;;;;7.40;6.30;;;;;;;12.41;68.87;97149.40;107096;1277;22573;-87
2022/05/24 05:46:00;;;;;;;9.10;6.20;;;;;;;12.46;68.74;97156.39;106657;1277;23283;-86
2022/05/24 05:48:28;;;;;;;8.30;6.90;;;;;;;12.54;68.54;97154.65;105761;1277;22675;-86
2022/05/24 05:50:56;;;;;;;9.30;8.10;;;;;;;12.60;68.54;97150.14;105992;1277;23943;-86
2022/05/24 05:53:24;;;;;;;9.40;8.00;;;;;;;12.63;68.25;97149.89;106028;1277;24370;-86
2022/05/24 05:55:52;;;;;;;8.70;6.90;;;;;;;12.64;68.33;97150.94;105994;1277;22757;-88
2022/05/24 05:58:20;;;;;;;9.30;6.60;;;;;;;12.68;68.12;97155.27;106346;1277;25651;-87
2022/05/24 06:00:48;;;;;;;10.70;6.20;;;;;;;12.79;68.38;97152.26;106098;1277;22598;-84
2022/05/24 06:03:17;;;;;;;8.50;5.80;;;;;;;12.86;68.03;97157.52;106025;1277;25114;-86
2022/05/24 06:05:48;;;;;;;10.10;6.80;;;;;;;12.91;67.93;97157.85;105927;1277;22556;-84
2022/05/24 06:08:17;;;;;;;11.10;7.40;;;;;;;12.94;67.63;97161.29;105977;1277;22554;-85
2022/05/24 06:10:48;;;;;;;11.20;7.30;;;;;;;12.94;67.64;97167.39;106001;1277;22648;-84
2022/05/24 06:13:16;;;;;;;9.00;6.60;;;;;;;12.95;67.58;97168.98;105984;1277;24385;-85
2022/05/24 06:15:48;;;;;;;11.40;7.50;;;;;;;12.99;67.49;97169.55;106000;1277;22674;-86
2022/05/24 06:18:17;;;;;;;9.30;6.90;;;;;;;13.01;67.41;97161.77;106021;1278;24314;-87
2022/05/24 06:20:45;;;;;;;11.90;6.70;;;;;;;13.08;67.33;97162.77;106014;1277;22576;-86
2022/05/24 06:23:13;;;;;;;11.60;6.50;;;;;;;13.15;67.43;97162.65;105970;1277;22748;-86
2022/05/24 06:25:42;;;;;;;9.40;7.10;;;;;;;13.23;67.29;97163.45;105996;1277;22610;-86
2022/05/24 06:28:15;;;;;;;10.40;6.90;;;;;;;13.31;67.24;97164.70;105959;1276;23977;-87
2022/05/24 06:30:44;;;;;;;8.50;6.30;;;;;;;13.30;66.92;97144.17;106172;1277;25338;-85
2022/05/24 06:33:12;;;;;;;7.90;6.10;;;;;;;13.49;66.74;97161.22;106553;1277;22744;-87
2022/05/24 06:35:44;;;;;;;8.00;6.60;;;;;;;13.56;66.48;97164.23;106169;1277;22552;-86
2022/05/24 06:38:13;;;;;;;7.90;6.10;;;;;;;13.64;66.55;97166.73;106068;1276;22626;-86
2022/05/24 06:40:41;;;;;;;11.40;6.70;;;;;;;13.73;66.24;97172.73;105934;1277;24323;-87
2022/05/24 06:43:09;;;;;;;10.70;6.30;;;;;;;13.81;66.12;97170.41;106150;1277;22468;-85
2022/05/24 06:45:38;;;;;;;11.00;5.80;;;;;;;13.91;66.12;97174.09;105990;1277;23899;-86
2022/05/24 06:48:10;;;;;;;10.60;6.30;;;;;;;13.97;65.92;97171.58;106301;1277;22778;-86
2022/05/24 06:50:41;;;;;;;9.60;6.70;;;;;;;14.02;65.58;97174.30;106049;1277;22733;-86
2022/05/24 06:53:09;;;;;;;7.90;6.20;;;;;;;14.03;65.37;97178.21;106015;1277;22894;-88
2022/05/24 06:55:37;;;;;;;7.30;5.80;;;;;;;14.01;65.25;97178.23;105902;1278;23015;-85
2022/05/24 06:58:06;;;;;;;7.20;6.10;;;;;;;13.99;65.39;97177.92;106104;1277;22726;-88
2022/05/24 07:03:22;;;;;;;9.00;6.30;;;;;;;14.09;65.48;97174.99;106061;1277;22706;-84
2022/05/24 07:05:51;;;;;;;7.80;6.30;;;;;;;14.16;65.38;97177.84;106104;1276;22730;-84
2022/05/24 07:08:19;;;;;;;11.80;6.90;;;;;;;14.20;65.41;97177.81;105859;1278;25358;-83
2022/05/24 07:10:47;;;;;;;9.90;8.10;;;;;;;14.23;65.23;97183.34;106141;1278;22557;-82
2022/05/24 07:13:18;;;;;;;11.80;8.40;;;;;;;14.28;65.12;97183.02;106465;1276;25300;-84
2022/05/24 07:15:47;;;;;;;10.30;7.70;;;;;;;14.34;65.10;97185.65;106308;1277;26617;-83
2022/05/24 07:18:15;;;;;;;10.30;8.20;;;;;;;14.38;65.13;97186.33;106347;1276;22665;-83
2022/05/24 07:20:43;;;;;;;12.60;7.50;;;;;;;14.41;65.28;97185.90;106336;1276;22537;-82
2022/05/24 07:23:15;;;;;;;14.60;9.00;;;;;;;14.44;64.97;97189.60;106203;1277;22650;-83
2022/05/24 07:25:45;;;;;;;13.70;8.30;;;;;;;14.42;64.79;97191.83;106292;1276;22584;-83
2022/05/24 07:28:23;;;;;;;12.30;8.30;;;;;;;14.44;65.14;97197.21;106443;1276;22571;-84
2022/05/24 07:30:51;;;;;;;15.60;8.30;;;;;;;14.47;64.90;97199.70;106377;1276;23432;-84
2022/05/24 07:33:19;;;;;;;9.00;8.10;;;;;;;14.54;64.92;97197.14;106214;1277;22555;-84
2022/05/24 07:35:47;;;;;;;14.50;8.70;;;;;;;14.62;64.75;97195.52;106188;1277;22569;-84
2022/05/24 07:38:14;;;;;;;13.10;7.60;;;;;;;14.69;64.84;97194.96;106270;1277;24327;-83
2022/05/24 07:46:30;;;;;;;9.00;7.90;;;;;;;15.04;64.70;97199.07;106120;1277;22580;-83
2022/05/24 07:48:58;;;;;;;10.10;7.60;;;;;;;15.13;64.62;97196.75;106192;1277;22880;-83
2022/05/24 07:51:26;;;;;;;11.90;8.10;;;;;;;15.24;64.62;97199.46;106148;1277;25364;-83
2022/05/24 07:53:55;;;;;;;10.10;7.70;;;;;;;15.31;64.38;97201.52;106248;1276;25539;-83
2022/05/24 07:56:23;;;;;;;10.00;7.40;;;;;;;15.37;64.09;97199.14;106200;1277;23975;-82
2022/05/24 07:58:52;;;;;;;13.10;7.50;;;;;;;15.40;64.01;97197.33;106154;1277;24297;-82
2022/05/24 08:01:23;;;;;;;9.90;7.60;;;;;;;15.46;64.17;97189.90;106161;1277;24320;-83
2022/05/24 08:03:52;;;;;;;8.80;7.30;;;;;;;15.53;64.05;97185.02;106227;1277;22566;-82
2022/05/24 08:06:20;;;;;;;11.40;7.20;;;;;;;15.57;63.82;97182.49;106176;1277;22721;-82
2022/05/24 08:08:48;;;;;;;10.20;7.20;;;;;;;15.63;63.86;97182.27;106310;1276;24516;-81
2022/05/24 08:11:16;;;;;;;12.00;6.80;;;;;;;15.72;63.76;97186.18;106365;1276;22782;-83
2022/05/24 08:13:44;;;;;;;10.20;6.70;;;;;;;15.82;63.76;97187.29;106483;1276;25821;-84
2022/05/24 08:16:13;;;;;;;11.30;7.30;;;;;;;15.91;63.44;97181.77;106424;1276;25364;-82
2022/05/24 08:18:44;;;;;;;14.00;6.60;;;;;;;16.02;63.42;97186.75;106455;1276;24153;-83
2022/05/24 08:21:12;;;;;;;9.80;6.50;;;;;;;16.14;63.52;97185.02;106414;1276;23282;-82
2022/05/24 08:23:40;;;;;;;10.40;6.00;;;;;;;16.23;62.97;97189.42;106606;1277;22582;-85
2022/05/24 08:26:08;;;;;;;9.60;6.70;;;;;;;16.31;62.97;97189.31;106651;1276;22738;-85
2022/05/24 08:28:36;;;;;;;11.00;6.30;;;;;;;16.39;62.43;97189.49;106792;1276;23421;-84
2022/05/24 08:31:08;;;;;;;10.90;6.70;;;;;;;16.42;62.27;97187.84;107807;1276;23252;-83
2022/05/24 08:33:37;;;;;;;11.20;6.00;;;;;;;16.48;62.31;97187.98;109166;1275;22640;-82
2022/05/24 08:36:05;;;;;;;10.90;6.30;;;;;;;16.54;62.09;97189.67;109341;1276;22650;-80
2022/05/24 08:38:34;;;;;;;10.70;7.00;;;;;;;16.54;61.81;97189.05;109135;1276;23159;-81
2022/05/24 08:41:09;;;;;;;12.10;6.40;;;;;;;16.56;61.78;97192.81;109281;1274;22723;-83
2022/05/24 08:49:58;;;;;;;10.20;7.00;;;;;;;16.89;61.86;97192.92;106325;1276;25450;-84
2022/05/24 08:52:33;;;;;;;11.50;7.40;;;;;;;16.97;61.65;97194.57;106384;1276;25452;-84
2022/05/24 08:55:03;;;;;;;10.60;7.00;;;;;;;17.01;61.45;97194.64;106321;1276;22649;-85
2022/05/24 08:57:54;;;;;;;12.90;7.20;;;;;;;17.07;61.11;97196.09;106393;1276;26648;-84
2022/05/24 09:00:40;;;;;;;8.30;6.50;;;;;;;17.07;61.25;97195.17;106412;1276;22749;-84
2022/05/24 09:03:10;;;;;;;11.60;6.80;;;;;;;17.15;61.40;97197.42;106331;1276;25287;-89
2022/05/24 09:05:42;;;;;;;13.60;6.40;;;;;;;17.26;61.27;97193.98;106186;1276;22688;-81
2022/05/24 09:08:34;;;;;;;13.50;6.00;;;;;;;17.33;60.77;97194.96;106270;1277;25353;-81
2022/05/24 09:11:25;;;;;;;15.60;8.30;;;;;;;17.35;60.66;97194.61;106480;1277;24348;-81
2022/05/24 09:14:12;;;;;;;11.10;7.00;;;;;;;17.39;60.75;97195.01;106135;1278;25473;-81
2022/05/24 09:17:36;;;;;;;15.30;6.70;;;;;;;17.51;60.77;97195.85;106136;1277;22674;-81
2022/05/24 09:20:25;;;;;;;10.30;6.30;;;;;;;17.63;60.81;97199.57;106194;1277;23756;-82
2022/05/24 09:23:20;;;;;;;10.60;6.10;;;;;;;17.68;60.70;97207.30;106158;1277;24302;-82
2022/05/24 09:25:53;;;;;;;12.20;7.90;;;;;;;17.70;60.61;97206.23;106159;1278;24227;-82
2022/05/24 09:28:51;;;;;;;14.70;6.30;;;;;;;17.72;60.49;97207.05;106157;1277;24423;-82
2022/05/24 09:31:28;;;;;;;9.70;6.20;;;;;;;17.69;60.14;97213.68;106141;1278;24230;-82
2022/05/24 09:34:27;;;;;;;13.40;6.70;;;;;;;17.58;60.07;97212.33;106172;1277;25427;-81
2022/05/24 09:36:58;;;;;;;10.40;6.60;;;;;;;17.55;60.04;97215.38;106214;1277;22748;-81
2022/05/24 09:39:32;;;;;;;12.30;7.30;;;;;;;17.49;59.98;97222.13;106172;1277;23530;-82
2022/05/24 09:42:05;;;;;;;10.20;7.40;;;;;;;17.43;60.06;97221.46;106136;1277;22577;-81
2022/05/24 09:45:11;;;;;;;12.20;6.90;;;;;;;17.40;60.16;97221.55;106024;1277;22713;-82
2022/05/24 09:47:42;;;;;;;12.30;6.80;;;;;;;17.44;60.05;97221.09;106035;1277;22554;-82
2022/05/24 09:50:18;;;;;;;11.40;6.30;;;;;;;17.45;60.17;97224.68;106203;1277;24109;-81
2022/05/24 09:53:04;;;;;;;11.40;7.00;;;;;;;17.49;60.28;97223.84;106204;1277;22709;-81
2022/05/24 09:55:52;;;;;;;11.70;6.40;;;;;;;17.60;60.19;97221.63;106317;1277;22539;-81
2022/05/24 09:58:35;;;;;;;13.60;6.30;;;;;;;17.69;60.02;97225.69;106280;1277;25432;-82
2022/05/24 10:01:09;;;;;;;12.80;7.20;;;;;;;17.78;60.05;97222.20;106311;1277;22561;-85
2022/05/24 10:03:40;;;;;;;;;;;;;;;17.90;60.20;97221.56;106135;1277;23925;-82
2022/05/24 10:06:08;;;;;;;15.00;6.00;;;;;;;17.99;60.14;97224.06;106156;1277;22537;-83
2022/05/24 10:08:40;;;;;;;19.70;7.20;;;;;;;18.03;59.97;97223.35;106285;1276;22570;-82
2022/05/24 10:11:38;;;;;;;12.90;6.60;;;;;;;18.04;59.98;97222.58;106375;1276;22547;-85
2022/05/24 10:14:24;;;;;;;10.10;6.40;;;;;;;18.07;60.03;97221.47;106365;1276;25284;-84
2022/05/24 10:16:56;;;;;;;15.10;8.00;;;;;;;18.15;60.02;97219.33;106445;1276;22535;-84
2022/05/24 10:20:07;;;;;;;12.80;6.60;;;;;;;18.20;59.70;97217.77;106048;1276;242929;-84
2022/05/24 10:22:41;;;;;;;7.90;5.60;;;;;;;18.09;59.72;97214.72;106125;1276;22710;-86
2022/05/24 10:25:44;;;;;;;11.70;6.80;;;;;;;18.04;59.65;97212.69;106393;1276;24452;-83
2022/05/24 10:28:37;;;;;;;14.20;6.50;;;;;;;17.95;59.70;97210.05;108069;1275;22573;-83
2022/05/24 10:31:29;;;;;;;15.70;7.00;;;;;;;17.90;59.82;97209.02;106335;1276;22626;-83
2022/05/24 10:40:15;;;;;;;12.80;6.00;;;;;;;17.79;60.41;97211.95;106426;1276;22584;-83
2022/05/24 10:43:22;;;;;;;21.60;6.80;;;;;;;17.81;60.41;97211.44;106444;1276;24240;-82
2022/05/24 10:46:01;;;;;;;13.00;6.30;;;;;;;17.78;60.44;97220.09;105610;1282;22715;-83
2022/05/24 10:48:58;;;;;;;11.30;7.00;;;;;;;17.77;60.60;97221.25;105654;1282;22601;-83
2022/05/24 10:52:05;;;;;;;14.20;9.10;;;;;;;17.75;60.56;97220.27;105551;1282;22665;-84
2022/05/24 10:54:36;;;;;;;14.20;8.60;;;;;;;17.73;60.71;97222.00;104902;1290;24198;-83
2022/05/24 10:57:13;;;;;;;14.60;11.00;;;;;;;17.74;60.70;97217.44;104981;1290;22792;-84
2022/05/24 10:59:52;;;;;;;15.80;8.20;;;;;;;17.71;60.74;97215.59;104946;1290;22822;-83
2022/05/24 11:02:43;;;;;;;16.40;8.40;;;;;;;17.69;60.89;97218.30;104952;1291;22816;-82
2022/05/24 11:05:20;;;;;;;13.50;7.60;;;;;;;17.66;60.93;97214.58;104896;1291;22900;-83
2022/05/24 11:07:54;;;;;;;16.30;9.10;;;;;;;17.68;60.99;97214.86;104999;1290;22562;-84
2022/05/24 11:10:27;;;;;;;17.40;7.70;;;;;;;17.69;61.07;97215.87;105340;1290;22733;-81
2022/05/24 11:13:01;;;;;;;12.80;7.90;;;;;;;17.72;61.27;97215.52;106869;1290;22556;-83
2022/05/24 11:15:37;;;;;;;19.70;8.60;;;;;;;17.75;61.30;97216.45;107061;1290;22573;-84
2022/05/24 11:18:17;;;;;;;19.00;8.30;;;;;;;17.79;61.57;97215.29;104938;1291;22700;-83
2022/05/24 11:20:55;;;;;;;13.10;8.10;;;;;;;17.84;61.62;97216.48;104879;1290;22750;-82
2022/05/24 11:23:33;;;;;;;19.40;8.00;;;;;;;17.87;61.75;97212.86;105206;1284;22643;-83
2022/05/24 11:26:11;;;;;;;15.10;8.70;;;;;;;17.85;61.98;97210.95;105494;1284;22560;-83
2022/05/24 11:28:49;;;;;;;16.30;8.40;;;;;;;17.81;62.14;97215.26;105594;1284;25239;-82
2022/05/24 11:31:23;;;;;;;15.30;9.50;;;;;;;17.76;62.55;97212.88;105976;1278;22654;-82
2022/05/24 11:33:53;;;;;;;17.30;7.70;;;;;;;17.70;62.64;97208.88;106394;1278;22833;-82
2022/05/24 11:36:41;;;;;;;15.40;7.20;;;;;;;17.71;63.04;97207.42;106277;1277;22726;-83
2022/05/24 11:39:23;;;;;;;15.40;7.80;;;;;;;17.72;63.29;97209.31;106421;1277;23894;-82
2022/05/24 11:42:19;;;;;;;16.50;8.40;;;;;;;17.78;63.43;97218.54;106251;1278;24252;-82
2022/05/24 11:44:50;;;;;;;22.30;10.50;;;;;;;17.79;63.75;97223.63;106091;1277;22716;-83
2022/05/24 11:47:37;;;;;;;12.80;8.50;;;;;;;17.85;63.86;97213.84;106081;1278;24306;-85
2022/05/24 11:50:08;;;;;;;15.50;8.30;;;;;;;17.89;63.94;97214.23;106162;1277;22579;-84
2022/05/24 11:52:45;;;;;;;15.10;9.60;;;;;;;17.85;64.32;97217.88;106459;1278;23294;-84
2022/05/24 11:55:44;;;;;;;12.30;8.60;;;;;;;17.87;64.73;97218.01;107522;1278;22544;-84
2022/05/24 11:58:21;;;;;;;14.90;9.00;;;;;;;17.90;64.87;97222.81;107947;1277;22570;-84
2022/05/24 12:00:59;;;;;;;16.70;9.50;;;;;;;17.92;65.02;97220.05;106447;1278;22711;-84
2022/05/24 12:09:25;;;;;;;16.70;8.70;;;;;;;18.00;65.35;97209.04;106961;1276;22674;-84
2022/05/24 12:12:34;;;;;;;15.50;8.90;;;;;;;18.03;65.49;97209.33;106621;1276;22559;-85
2022/05/24 12:15:46;;;;;;;15.80;11.40;;;;;;;18.10;65.53;97205.70;106154;1282;22540;-85
2022/05/24 12:18:18;;;;;;;14.70;9.30;;;;;;;18.18;65.62;97208.23;106491;1282;22539;-86
2022/05/24 12:20:47;;;;;;;17.30;9.10;;;;;;;18.24;66.24;97208.34;106132;1282;22556;-84
2022/05/24 12:23:30;;;;;;;14.60;8.60;;;;;;;18.34;66.49;97204.28;106208;1282;22573;-85
2022/05/24 12:26:05;;;;;;;15.50;9.20;;;;;;;18.54;66.75;97201.22;106019;1281;22579;-85
2022/05/24 12:28:36;;;;;;;12.20;7.90;;;;;;;18.96;66.85;97202.44;106001;1282;22560;-85
2022/05/24 12:31:25;;;;;;;14.00;10.10;;;;;;;19.45;66.79;97202.95;105587;1282;24445;-82
2022/05/24 12:33:57;;;;;;;12.10;6.90;;;;;;;19.96;66.76;97202.99;105727;1281;22578;-84
2022/05/24 12:36:40;;;;;;;12.60;7.00;;;;;;;20.28;66.21;97203.50;105686;1282;22705;-82
2022/05/24 12:39:30;;;;;;;13.70;6.60;;;;;;;20.66;65.46;97206.38;105884;1282;22652;-84
2022/05/24 12:42:02;;;;;;;10.00;5.80;;;;;;;20.85;63.46;97207.73;105906;1282;25395;-83